Time;durP1;ratioP1;P1;durP2;ratioP2;P2;SDS_P1;SDS_P2;PMS_P1;PMS_P2;Temp;Humidity;BMP_temperature;BMP_pressure;BME280_temperature;BME280_humidity;BME280_pressure;Samples;Min_cycle;Max_cycle;Signal;HPM_P1;HPM_P2
2021/01/20 00:01:22;;;;;;;4.40;2.73;;;5.20;99.90;;;;;;4991703;28;20190;-78
2021/01/20 00:03:48;;;;;;;4.73;3.00;;;5.10;99.90;;;;;;5006580;28;20213;-79
2021/01/20 00:06:13;;;;;;;3.77;2.70;;;5.10;99.90;;;;;;5011315;28;20201;-78
2021/01/20 00:08:39;;;;;;;3.73;3.43;;;5.10;99.90;;;;;;4996530;28;20693;-79
2021/01/20 00:11:05;;;;;;;4.17;2.80;;;5.00;99.90;;;;;;5011224;28;20632;-78
2021/01/20 00:13:30;;;;;;;3.67;3.00;;;5.00;99.90;;;;;;5010212;28;20201;-79
2021/01/20 00:15:56;;;;;;;3.73;2.83;;;5.00;99.90;;;;;;5011133;28;20158;-79
2021/01/20 00:18:22;;;;;;;3.27;2.93;;;5.10;99.90;;;;;;5000001;28;20515;-79
2021/01/20 00:20:48;;;;;;;3.80;2.47;;;5.10;99.90;;;;;;4991732;28;20179;-78
2021/01/20 00:23:13;;;;;;;4.43;3.70;;;5.10;99.90;;;;;;5006260;28;20236;-78
2021/01/20 00:25:40;;;;;;;4.00;2.90;;;5.20;99.90;;;;;;5010547;28;20672;-78
2021/01/20 00:28:05;;;;;;;4.82;3.63;;;5.20;99.90;;;;;;4990868;28;20210;-78
2021/01/20 00:30:31;;;;;;;5.60;3.00;;;5.20;99.90;;;;;;4991748;28;20499;-77
2021/01/20 00:32:58;;;;;;;3.27;2.60;;;5.20;99.90;;;;;;4989653;28;20673;-77
2021/01/20 00:35:24;;;;;;;2.50;2.30;;;5.10;99.90;;;;;;4991198;28;20202;-77
2021/01/20 00:37:51;;;;;;;4.47;3.17;;;5.20;99.90;;;;;;5007197;28;20213;-77
2021/01/20 00:40:17;;;;;;;5.18;3.08;;;5.20;99.90;;;;;;4993616;28;20174;-77
2021/01/20 00:42:43;;;;;;;8.35;3.60;;;5.20;99.90;;;;;;4991188;28;20213;-79
2021/01/20 00:45:09;;;;;;;3.25;3.00;;;5.30;99.90;;;;;;4991295;28;20527;-77
2021/01/20 00:47:35;;;;;;;7.38;2.40;;;5.30;99.90;;;;;;4994864;28;20217;-78
2021/01/20 00:50:00;;;;;;;4.40;2.87;;;5.30;99.90;;;;;;5011451;28;20174;-78
2021/01/20 00:52:26;;;;;;;4.20;2.90;;;5.30;99.90;;;;;;5004858;28;20305;-79
2021/01/20 00:54:52;;;;;;;5.60;2.90;;;5.20;99.90;;;;;;4991196;28;20206;-78
2021/01/20 00:57:18;;;;;;;4.07;2.73;;;5.30;99.90;;;;;;4993637;28;20991;-78
2021/01/20 00:59:43;;;;;;;3.23;2.93;;;5.20;99.90;;;;;;4993285;28;20284;-78
2021/01/20 01:02:09;;;;;;;2.90;2.70;;;5.20;99.90;;;;;;5008182;28;20727;-78
2021/01/20 01:04:34;;;;;;;3.63;2.40;;;5.20;99.90;;;;;;4991186;28;20211;-79
2021/01/20 01:07:00;;;;;;;6.90;3.67;;;5.20;99.90;;;;;;4999829;28;20690;-78
2021/01/20 01:09:26;;;;;;;3.23;2.53;;;5.30;99.90;;;;;;4996937;28;20209;-78
2021/01/20 01:11:51;;;;;;;3.17;2.83;;;5.30;99.90;;;;;;5008540;28;20511;-78
2021/01/20 01:14:17;;;;;;;4.10;2.90;;;5.40;99.90;;;;;;4994730;28;20206;-77
2021/01/20 01:16:43;;;;;;;3.37;2.87;;;5.30;99.90;;;;;;4994258;28;20194;-78
2021/01/20 01:19:08;;;;;;;3.20;2.53;;;5.30;99.90;;;;;;4977228;28;20205;-77
2021/01/20 01:21:34;;;;;;;3.43;2.60;;;5.30;99.90;;;;;;5003264;28;20177;-78
2021/01/20 01:24:00;;;;;;;3.73;3.40;;;5.30;99.90;;;;;;5014346;28;20205;-77
2021/01/20 01:26:27;;;;;;;3.03;2.40;;;5.30;99.90;;;;;;5006441;28;20179;-77
2021/01/20 01:28:53;;;;;;;8.15;3.03;;;5.30;99.90;;;;;;4993845;28;20214;-79
2021/01/20 01:31:18;;;;;;;3.50;2.30;;;5.40;99.90;;;;;;5000075;28;20180;-80
2021/01/20 01:33:44;;;;;;;4.53;2.50;;;5.40;99.90;;;;;;5013261;28;20222;-79
2021/01/20 01:36:10;;;;;;;6.30;3.40;;;5.40;99.90;;;;;;4994773;28;20202;-79
2021/01/20 01:38:35;;;;;;;5.37;3.37;;;5.50;99.90;;;;;;4994059;28;20217;-78
2021/01/20 01:41:01;;;;;;;5.60;4.23;;;5.50;99.90;;;;;;4994853;28;20833;-78
2021/01/20 01:43:27;;;;;;;6.03;4.40;;;5.50;99.90;;;;;;4993309;28;20218;-77
2021/01/20 01:45:53;;;;;;;5.40;4.07;;;5.60;99.90;;;;;;4994129;28;20254;-77
2021/01/20 01:48:19;;;;;;;7.37;4.13;;;5.60;99.90;;;;;;4976608;28;20802;-78
2021/01/20 01:50:47;;;;;;;10.37;4.27;;;5.70;99.90;;;;;;5013918;28;20922;-78
2021/01/20 01:53:13;;;;;;;7.07;4.68;;;5.80;99.90;;;;;;4994357;28;20233;-78
2021/01/20 01:55:39;;;;;;;5.43;4.23;;;5.80;99.90;;;;;;4994193;28;20206;-77
2021/01/20 01:58:06;;;;;;;6.53;3.40;;;5.90;99.90;;;;;;4991917;28;20536;-78
2021/01/20 02:00:33;;;;;;;4.53;3.13;;;6.00;99.90;;;;;;4996061;28;20167;-78
2021/01/20 02:03:02;;;;;;;6.22;4.38;;;6.00;99.90;;;;;;5004085;28;20306;-78
2021/01/20 02:05:28;;;;;;;4.57;4.05;;;6.10;99.90;;;;;;4994180;28;20194;-77
2021/01/20 02:07:55;;;;;;;5.03;3.93;;;6.10;99.90;;;;;;4993931;28;20355;-78
2021/01/20 02:10:22;;;;;;;3.85;3.53;;;6.00;99.90;;;;;;4993979;28;20657;-78
2021/01/20 02:13:13;;;;;;;4.18;3.47;;;6.10;99.90;;;;;;4993734;28;20273;-78
2021/01/20 02:16:00;;;;;;;4.45;3.63;;;6.00;99.90;;;;;;4994175;28;20206;-77
2021/01/20 02:18:30;;;;;;;4.38;3.53;;;6.10;99.90;;;;;;4993718;28;20226;-78
2021/01/20 02:21:23;;;;;;;5.90;3.63;;;6.10;99.90;;;;;;4994011;28;20284;-79
2021/01/20 02:23:50;;;;;;;4.82;2.97;;;6.20;99.90;;;;;;5012566;28;20738;-79
2021/01/20 02:26:37;;;;;;;5.88;4.03;;;6.30;99.90;;;;;;5009575;28;20167;-78
2021/01/20 02:29:25;;;;;;;3.00;2.50;;;6.20;99.90;;;;;;4992087;28;20240;-79
2021/01/20 02:31:53;;;;;;;3.80;2.65;;;6.20;99.90;;;;;;4992870;28;20170;-79
2021/01/20 02:34:21;;;;;;;7.70;3.05;;;6.30;99.90;;;;;;5002286;28;20210;-79
2021/01/20 02:36:49;;;;;;;3.38;2.35;;;6.30;99.90;;;;;;5012446;28;20225;-78
2021/01/20 02:39:17;;;;;;;2.97;2.40;;;6.40;99.90;;;;;;5003393;28;20183;-78
2021/01/20 02:41:43;;;;;;;4.22;2.65;;;6.40;99.90;;;;;;4992710;28;20585;-78
2021/01/20 02:44:09;;;;;;;3.67;3.00;;;6.50;99.90;;;;;;5003073;28;20193;-78
2021/01/20 02:46:36;;;;;;;3.73;3.00;;;6.60;99.90;;;;;;4995023;28;20533;-78
2021/01/20 02:49:02;;;;;;;3.78;2.90;;;6.70;99.90;;;;;;5002372;28;20205;-78
2021/01/20 02:51:59;;;;;;;3.15;2.55;;;6.70;99.90;;;;;;5005653;28;20583;-77
2021/01/20 02:54:26;;;;;;;2.65;2.45;;;6.70;99.90;;;;;;4981626;28;20225;-78
2021/01/20 02:56:53;;;;;;;2.80;2.22;;;6.70;99.90;;;;;;4992632;28;20186;-78
2021/01/20 02:59:24;;;;;;;2.50;2.30;;;6.80;99.90;;;;;;4991518;28;20202;-80
2021/01/20 03:01:54;;;;;;;5.32;2.85;;;6.90;99.90;;;;;;4993258;28;20198;-79
2021/01/20 03:04:20;;;;;;;3.50;2.70;;;6.80;99.90;;;;;;4997005;28;20698;-80
2021/01/20 03:06:46;;;;;;;3.30;2.90;;;6.90;99.90;;;;;;4992463;28;20545;-78
2021/01/20 03:09:16;;;;;;;3.60;2.40;;;6.90;99.90;;;;;;5002372;28;20205;-78
2021/01/20 03:11:49;;;;;;;4.20;2.45;;;6.90;99.90;;;;;;5012385;28;20202;-79
2021/01/20 03:14:21;;;;;;;3.35;2.65;;;6.90;99.90;;;;;;5012030;28;20297;-79
2021/01/20 03:16:47;;;;;;;3.15;2.83;;;6.90;99.90;;;;;;5010929;28;20253;-78
2021/01/20 03:19:12;;;;;;;4.33;3.03;;;6.90;99.90;;;;;;5012497;28;20268;-78
2021/01/20 03:21:38;;;;;;;3.67;3.10;;;6.90;99.90;;;;;;5006346;28;20174;-78
2021/01/20 03:24:05;;;;;;;3.43;2.80;;;7.00;99.90;;;;;;4992443;28;20190;-77
2021/01/20 03:26:31;;;;;;;5.13;3.55;;;7.00;99.90;;;;;;5003571;28;20231;-80
2021/01/20 03:28:56;;;;;;;3.20;2.67;;;7.00;99.90;;;;;;4997077;28;20309;-78
2021/01/20 03:31:22;;;;;;;3.37;2.40;;;7.00;99.90;;;;;;5001059;28;20409;-79
2021/01/20 03:33:48;;;;;;;3.00;2.80;;;7.00;99.90;;;;;;5010945;28;20584;-79
2021/01/20 03:36:14;;;;;;;2.60;2.40;;;7.00;99.90;;;;;;4986542;28;20396;-79
2021/01/20 03:38:39;;;;;;;3.03;2.70;;;7.00;99.90;;;;;;4991822;28;20640;-78
2021/01/20 03:41:05;;;;;;;3.00;2.33;;;7.00;99.90;;;;;;4993273;28;20202;-79
2021/01/20 03:43:31;;;;;;;4.40;2.60;;;7.00;99.90;;;;;;5001347;28;20214;-79
2021/01/20 03:45:57;;;;;;;3.63;2.47;;;7.00;99.90;;;;;;5007501;28;20321;-79
2021/01/20 03:48:22;;;;;;;4.10;3.07;;;7.00;99.90;;;;;;4991899;28;20816;-79
2021/01/20 03:50:48;;;;;;;3.50;2.90;;;7.00;99.90;;;;;;4993876;28;20703;-79
2021/01/20 03:53:14;;;;;;;4.07;3.07;;;6.90;99.90;;;;;;5011254;28;20747;-79
2021/01/20 03:55:39;;;;;;;3.33;3.00;;;6.80;99.90;;;;;;5010635;28;20806;-79
2021/01/20 03:58:05;;;;;;;5.00;3.10;;;6.90;99.90;;;;;;5010921;28;20308;-78
2021/01/20 04:00:30;;;;;;;4.30;2.80;;;6.80;99.90;;;;;;5006387;28;20225;-78
2021/01/20 04:02:56;;;;;;;3.97;2.50;;;6.80;99.90;;;;;;5003978;28;20622;-78
2021/01/20 04:05:22;;;;;;;2.87;2.63;;;6.90;99.90;;;;;;5011100;28;20198;-78
2021/01/20 04:07:47;;;;;;;4.00;3.10;;;7.00;99.90;;;;;;5011565;28;20688;-77
2021/01/20 04:10:13;;;;;;;4.20;2.30;;;7.20;99.90;;;;;;5010196;28;20248;-79
2021/01/20 04:12:39;;;;;;;3.47;2.47;;;7.20;99.90;;;;;;5010878;28;20264;-79
2021/01/20 04:15:06;;;;;;;3.13;2.23;;;7.20;99.90;;;;;;4986643;28;20205;-79
2021/01/20 04:17:33;;;;;;;3.42;3.13;;;7.20;99.90;;;;;;4991980;28;20210;-78
2021/01/20 04:19:58;;;;;;;3.80;2.88;;;7.10;99.90;;;;;;5003513;28;20193;-78
2021/01/20 04:22:24;;;;;;;3.83;2.37;;;7.10;99.70;;;;;;5010823;28;20293;-79
2021/01/20 04:24:50;;;;;;;2.20;2.00;;;7.10;98.20;;;;;;4999991;28;20206;-79
2021/01/20 04:27:16;;;;;;;5.60;2.57;;;7.10;98.30;;;;;;4995684;28;20209;-78
2021/01/20 04:29:42;;;;;;;2.65;2.10;;;7.10;99.30;;;;;;5011166;28;20197;-78
2021/01/20 04:32:08;;;;;;;3.10;2.43;;;7.10;97.70;;;;;;5002033;28;20292;-78
2021/01/20 04:34:33;;;;;;;3.00;2.23;;;7.20;96.90;;;;;;4991204;28;20198;-78
2021/01/20 04:36:59;;;;;;;3.67;2.57;;;7.20;98.10;;;;;;4991920;28;20449;-79
2021/01/20 04:39:25;;;;;;;4.50;3.30;;;7.10;98.80;;;;;;5004668;28;20244;-78
2021/01/20 04:41:51;;;;;;;3.00;2.17;;;7.10;97.90;;;;;;5014280;28;20154;-79
2021/01/20 04:44:17;;;;;;;3.47;2.53;;;7.10;96.10;;;;;;5014279;28;20269;-76
2021/01/20 04:46:44;;;;;;;3.00;2.70;;;7.20;97.30;;;;;;4994856;28;20167;-78
2021/01/20 04:49:19;;;;;;;2.47;2.10;;;7.20;99.40;;;;;;4995012;28;20178;-78
2021/01/20 04:51:47;;;;;;;3.13;2.60;;;7.10;99.00;;;;;;4978061;28;20284;-79
2021/01/20 04:54:13;;;;;;;3.20;2.30;;;7.00;99.90;;;;;;4995193;28;20205;-78
2021/01/20 04:56:39;;;;;;;2.50;2.03;;;7.00;99.90;;;;;;4993684;28;20600;-78
2021/01/20 04:59:06;;;;;;;2.97;2.28;;;7.00;99.90;;;;;;4995458;28;20437;-76
2021/01/20 05:01:32;;;;;;;2.50;2.30;;;6.90;99.90;;;;;;4995070;28;20241;-78
2021/01/20 05:04:03;;;;;;;2.63;2.40;;;7.00;99.90;;;;;;5008118;28;20205;-78
2021/01/20 05:06:30;;;;;;;2.83;2.40;;;6.90;99.90;;;;;;5011694;28;20207;-79
2021/01/20 05:08:56;;;;;;;4.07;2.03;;;6.80;99.90;;;;;;4993881;28;20220;-78
2021/01/20 05:11:45;;;;;;;3.00;2.43;;;6.80;99.90;;;;;;4995095;28;20179;-78
2021/01/20 05:14:16;;;;;;;3.50;1.98;;;6.80;99.90;;;;;;4984303;28;20550;-78
2021/01/20 05:16:50;;;;;;;3.83;2.05;;;6.80;99.90;;;;;;4996947;28;20186;-78
2021/01/20 05:19:32;;;;;;;2.83;2.40;;;6.80;99.90;;;;;;5013513;28;20533;-78
2021/01/20 05:22:06;;;;;;;1.90;1.75;;;6.80;99.90;;;;;;5002050;28;20261;-78
2021/01/20 05:24:34;;;;;;;7.70;2.08;;;6.80;99.90;;;;;;4984062;28;20182;-78
2021/01/20 05:27:00;;;;;;;2.20;2.00;;;6.80;99.90;;;;;;5013752;28;20209;-77
2021/01/20 05:29:26;;;;;;;3.47;2.63;;;6.70;99.90;;;;;;5012490;28;20166;-77
2021/01/20 05:31:51;;;;;;;4.50;2.40;;;6.70;99.90;;;;;;5014155;28;20783;-78
2021/01/20 05:34:32;;;;;;;2.53;2.07;;;6.70;99.90;;;;;;4992785;28;20190;-77
2021/01/20 05:37:15;;;;;;;1.80;1.70;;;6.60;99.90;;;;;;4994113;28;20214;-78
2021/01/20 05:39:41;;;;;;;2.95;2.05;;;6.70;99.90;;;;;;4994891;28;20276;-78
2021/01/20 05:42:11;;;;;;;2.60;1.80;;;6.60;99.90;;;;;;4995609;28;20290;-78
2021/01/20 05:44:38;;;;;;;3.88;2.75;;;6.60;99.90;;;;;;4994230;28;20187;-78
2021/01/20 05:47:09;;;;;;;3.13;2.28;;;6.60;99.90;;;;;;4976513;28;20214;-77
2021/01/20 05:49:35;;;;;;;4.43;2.15;;;6.60;99.90;;;;;;5011857;28;20201;-76
2021/01/20 05:52:01;;;;;;;3.40;2.10;;;6.60;99.90;;;;;;5012588;28;20623;-77
2021/01/20 05:54:38;;;;;;;3.22;2.38;;;6.70;99.90;;;;;;4995470;28;20481;-77
2021/01/20 05:57:09;;;;;;;2.78;2.30;;;6.70;99.90;;;;;;4993141;28;20221;-77
2021/01/20 05:59:35;;;;;;;9.02;2.83;;;6.70;99.90;;;;;;5012566;28;20162;-77
2021/01/20 06:02:02;;;;;;;2.40;2.10;;;6.70;99.90;;;;;;5013296;28;20221;-77
2021/01/20 06:04:29;;;;;;;3.10;2.55;;;6.60;99.90;;;;;;4979048;28;20430;-77
2021/01/20 06:06:56;;;;;;;2.90;2.05;;;6.50;99.90;;;;;;4993197;28;20222;-77
2021/01/20 06:09:25;;;;;;;3.33;2.60;;;6.60;99.90;;;;;;5009306;28;20184;-77
2021/01/20 06:11:51;;;;;;;3.38;1.73;;;6.60;99.90;;;;;;5013227;28;20194;-77
2021/01/20 06:14:17;;;;;;;3.47;2.00;;;6.60;99.90;;;;;;4999427;28;20271;-77
2021/01/20 06:16:45;;;;;;;2.60;2.00;;;6.50;99.90;;;;;;4993520;28;20713;-77
2021/01/20 06:19:13;;;;;;;4.25;2.20;;;6.50;99.90;;;;;;5013050;28;20476;-75
2021/01/20 06:21:40;;;;;;;4.70;2.15;;;6.50;99.90;;;;;;5012951;28;20190;-77
2021/01/20 06:24:14;;;;;;;3.22;2.10;;;6.50;99.90;;;;;;4996301;28;20273;-77
2021/01/20 06:26:48;;;;;;;3.13;2.75;;;6.60;99.90;;;;;;4993186;28;20329;-77
2021/01/20 06:29:16;;;;;;;4.20;2.67;;;6.70;99.90;;;;;;5011368;28;20165;-77
2021/01/20 06:31:46;;;;;;;2.15;1.95;;;6.80;99.90;;;;;;5007726;28;20190;-77
2021/01/20 06:34:12;;;;;;;4.43;2.10;;;6.80;99.90;;;;;;4993597;28;20206;-77
2021/01/20 06:36:38;;;;;;;4.50;2.30;;;6.70;99.90;;;;;;4995450;28;20194;-77
2021/01/20 06:39:29;;;;;;;2.28;1.98;;;6.70;99.90;;;;;;5013104;28;20265;-77
2021/01/20 06:41:56;;;;;;;2.22;2.03;;;6.70;99.90;;;;;;5006685;28;20673;-77
2021/01/20 06:44:21;;;;;;;3.00;1.98;;;6.70;99.90;;;;;;4993513;28;20191;-77
2021/01/20 06:46:56;;;;;;;2.97;2.10;;;6.60;99.90;;;;;;4995764;28;20328;-77
2021/01/20 06:49:23;;;;;;;2.50;1.75;;;6.60;99.90;;;;;;5011709;28;20452;-77
2021/01/20 06:52:07;;;;;;;2.70;1.90;;;6.60;99.90;;;;;;4995321;28;20210;-77
2021/01/20 06:54:35;;;;;;;5.10;2.13;;;6.70;99.90;;;;;;5012803;28;20727;-77
2021/01/20 06:57:00;;;;;;;3.80;1.88;;;6.90;99.90;;;;;;5011551;28;20259;-77
2021/01/20 06:59:32;;;;;;;4.33;2.20;;;6.90;99.90;;;;;;5012711;28;20166;-77
2021/01/20 07:02:04;;;;;;;1.95;1.45;;;6.90;99.90;;;;;;4992291;28;20764;-76
2021/01/20 07:04:39;;;;;;;1.80;1.55;;;7.00;99.90;;;;;;4989507;28;20235;-77
2021/01/20 07:07:09;;;;;;;2.33;1.90;;;7.00;99.90;;;;;;5010342;28;20221;-77
2021/01/20 07:09:50;;;;;;;3.85;1.80;;;7.00;99.90;;;;;;4990137;28;20174;-77
2021/01/20 07:12:23;;;;;;;1.85;1.75;;;7.00;99.90;;;;;;4991597;28;20244;-77
2021/01/20 07:14:50;;;;;;;2.47;2.00;;;6.90;99.90;;;;;;4997931;28;20661;-77
2021/01/20 07:17:17;;;;;;;2.42;2.08;;;7.00;99.90;;;;;;5011264;28;20217;-77
2021/01/20 07:19:45;;;;;;;4.55;2.15;;;7.00;99.90;;;;;;5006936;28;20174;-77
2021/01/20 07:22:12;;;;;;;3.08;2.20;;;7.00;99.90;;;;;;4991306;28;20581;-78
2021/01/20 07:24:37;;;;;;;2.47;1.85;;;7.00;99.90;;;;;;4995412;28;20182;-77
2021/01/20 07:27:08;;;;;;;2.83;2.00;;;7.00;99.90;;;;;;4991655;28;20285;-78
2021/01/20 07:29:34;;;;;;;3.17;2.05;;;6.90;99.90;;;;;;4987539;28;20163;-78
2021/01/20 07:32:01;;;;;;;5.60;3.20;;;6.90;99.90;;;;;;4991225;28;20214;-78
2021/01/20 07:34:38;;;;;;;6.03;4.72;;;6.90;99.90;;;;;;5003150;28;20465;-78
2021/01/20 07:37:17;;;;;;;4.57;3.10;;;6.90;99.90;;;;;;5001722;28;20217;-77
2021/01/20 07:39:44;;;;;;;4.82;3.28;;;6.80;99.90;;;;;;5011571;28;20157;-78
2021/01/20 07:42:10;;;;;;;5.35;3.38;;;6.80;99.90;;;;;;5009773;28;20221;-77
2021/01/20 07:44:46;;;;;;;4.55;3.20;;;6.80;99.90;;;;;;5004633;28;20214;-77
2021/01/20 07:47:12;;;;;;;3.58;2.60;;;6.80;99.90;;;;;;4990678;28;20696;-77
2021/01/20 07:49:50;;;;;;;3.47;2.65;;;6.80;99.90;;;;;;5001881;28;20170;-77
2021/01/20 07:52:18;;;;;;;3.08;2.53;;;6.80;99.90;;;;;;5010542;28;20297;-77
2021/01/20 07:54:48;;;;;;;2.97;2.08;;;6.70;99.90;;;;;;4999915;28;20264;-77
2021/01/20 07:57:21;;;;;;;3.33;2.25;;;6.70;99.90;;;;;;4990440;28;20214;-77
2021/01/20 08:00:05;;;;;;;3.42;2.55;;;6.80;99.90;;;;;;4991734;28;20167;-77
2021/01/20 08:02:31;;;;;;;3.50;2.80;;;6.70;99.90;;;;;;4990356;28;20209;-78
2021/01/20 08:05:00;;;;;;;5.13;2.90;;;6.70;99.90;;;;;;5002223;28;20304;-78
2021/01/20 08:07:26;;;;;;;3.25;2.38;;;6.60;99.90;;;;;;5010231;28;20704;-78
2021/01/20 08:09:52;;;;;;;3.40;2.27;;;6.60;99.90;;;;;;5010376;28;20174;-78
2021/01/20 08:12:22;;;;;;;3.97;2.07;;;6.70;99.90;;;;;;5010251;28;20218;-78
2021/01/20 08:14:48;;;;;;;3.08;2.10;;;6.80;99.90;;;;;;5010047;28;20296;-78
2021/01/20 08:17:14;;;;;;;3.70;2.38;;;6.80;99.90;;;;;;5009873;28;20213;-78
2021/01/20 08:19:40;;;;;;;3.73;2.53;;;6.80;99.90;;;;;;4987096;28;20158;-78
2021/01/20 08:22:14;;;;;;;3.17;1.83;;;6.70;99.90;;;;;;5010068;28;20464;-78
2021/01/20 08:24:44;;;;;;;2.90;2.10;;;6.70;99.90;;;;;;5009066;28;20287;-77
2021/01/20 08:27:11;;;;;;;3.60;2.58;;;6.70;99.80;;;;;;5009878;28;20248;-77
2021/01/20 08:29:48;;;;;;;8.75;2.60;;;6.70;99.90;;;;;;5008329;28;20568;-77
2021/01/20 08:32:14;;;;;;;2.97;1.90;;;6.80;99.70;;;;;;4992230;28;20222;-77
2021/01/20 08:34:41;;;;;;;12.00;3.37;;;6.80;98.50;;;;;;4994276;28;20208;-76
2021/01/20 08:37:09;;;;;;;3.25;2.50;;;6.80;99.20;;;;;;4984145;28;20450;-77
2021/01/20 08:39:36;;;;;;;2.25;2.05;;;6.70;99.90;;;;;;4991396;28;20269;-78
2021/01/20 08:42:28;;;;;;;2.53;2.20;;;6.70;99.90;;;;;;4990563;28;20206;-77
2021/01/20 08:45:20;;;;;;;4.25;2.13;;;6.70;98.80;;;;;;4992297;28;20604;-76
2021/01/20 08:47:51;;;;;;;3.72;2.22;;;6.70;99.10;;;;;;4970968;28;20566;-78
2021/01/20 08:50:33;;;;;;;3.30;2.47;;;6.80;97.60;;;;;;5005322;28;20523;-78
2021/01/20 08:52:59;;;;;;;2.78;2.28;;;6.80;98.20;;;;;;5010074;28;20236;-78
2021/01/20 08:56:02;;;;;;;5.00;2.60;;;6.80;97.40;;;;;;5001513;28;20732;-78
2021/01/20 08:58:30;;;;;;;2.45;2.15;;;6.90;98.00;;;;;;4947017;28;20237;-77
2021/01/20 09:01:09;;;;;;;4.95;3.03;;;6.90;97.60;;;;;;4987696;23;20230;-77
2021/01/20 09:03:36;;;;;;;4.63;2.20;;;7.10;95.80;;;;;;4990056;28;20210;-79
2021/01/20 09:06:05;;;;;;;3.78;2.85;;;7.00;96.10;;;;;;4973472;28;20183;-78
2021/01/20 09:08:36;;;;;;;3.60;2.47;;;7.10;95.20;;;;;;4990318;28;20696;-78
2021/01/20 09:11:04;;;;;;;2.83;2.25;;;7.10;94.90;;;;;;5009804;28;20178;-78
2021/01/20 09:13:29;;;;;;;1.80;1.70;;;7.10;94.90;;;;;;5001540;28;20223;-77
2021/01/20 09:15:56;;;;;;;4.37;2.10;;;7.00;96.80;;;;;;5002442;28;20213;-77
2021/01/20 09:18:23;;;;;;;3.35;2.20;;;7.00;94.70;;;;;;5002381;28;20673;-77
2021/01/20 09:20:49;;;;;;;4.25;2.45;;;7.00;94.10;;;;;;4989222;28;20175;-78
2021/01/20 09:23:15;;;;;;;3.20;2.10;;;7.10;94.00;;;;;;4995071;28;20206;-78
2021/01/20 09:25:41;;;;;;;3.03;2.10;;;7.10;94.50;;;;;;5010475;28;20529;-77
2021/01/20 09:28:08;;;;;;;5.10;2.10;;;7.10;94.20;;;;;;5008123;28;20466;-77
2021/01/20 09:30:34;;;;;;;2.97;2.13;;;7.10;95.40;;;;;;4994202;28;20514;-77
2021/01/20 09:33:00;;;;;;;3.55;2.50;;;7.10;95.30;;;;;;5005897;28;20297;-77
2021/01/20 09:35:26;;;;;;;5.30;3.90;;;7.10;94.90;;;;;;5013742;28;20719;-77
2021/01/20 09:37:53;;;;;;;4.03;3.33;;;7.00;95.40;;;;;;5012311;28;20233;-78
2021/01/20 09:40:21;;;;;;;3.55;2.35;;;7.10;94.70;;;;;;5013493;28;20494;-78
2021/01/20 09:42:48;;;;;;;4.65;2.53;;;7.20;94.40;;;;;;5002331;28;20291;-77
2021/01/20 09:45:15;;;;;;;3.33;2.67;;;7.30;93.10;;;;;;4993500;28;20194;-79
2021/01/20 09:47:45;;;;;;;3.72;2.63;;;7.30;93.50;;;;;;5001443;28;20615;-78
2021/01/20 09:50:14;;;;;;;3.75;2.70;;;7.30;94.50;;;;;;4993493;28;20202;-77
2021/01/20 09:52:39;;;;;;;2.25;1.85;;;7.20;94.10;;;;;;5000711;28;20206;-77
2021/01/20 09:55:06;;;;;;;3.63;2.40;;;7.30;94.50;;;;;;5012918;28;20205;-77
2021/01/20 09:57:32;;;;;;;4.05;2.58;;;7.40;94.20;;;;;;4988282;28;20812;-76
2021/01/20 09:59:58;;;;;;;5.40;2.92;;;7.60;92.90;;;;;;4993302;28;20226;-77
2021/01/20 10:02:24;;;;;;;2.80;1.97;;;7.60;93.40;;;;;;4994017;28;20218;-76
2021/01/20 10:04:49;;;;;;;5.60;2.70;;;7.60;92.60;;;;;;4993401;28;20194;-78
2021/01/20 10:07:16;;;;;;;6.60;2.70;;;7.60;92.80;;;;;;4994118;28;20217;-78
2021/01/20 10:09:43;;;;;;;6.68;2.55;;;7.60;94.60;;;;;;5013233;28;20268;-78
2021/01/20 10:12:11;;;;;;;4.65;2.75;;;7.60;92.40;;;;;;5011695;28;20210;-78
2021/01/20 10:14:36;;;;;;;3.65;2.30;;;7.60;91.30;;;;;;5011265;28;20201;-77
2021/01/20 10:17:03;;;;;;;2.53;2.30;;;7.60;90.10;;;;;;5010290;28;20293;-77
2021/01/20 10:19:28;;;;;;;3.67;2.35;;;7.60;91.50;;;;;;4994447;28;20587;-78
2021/01/20 10:21:54;;;;;;;3.00;2.70;;;7.60;90.40;;;;;;5006391;28;20297;-77
2021/01/20 10:24:20;;;;;;;2.80;2.40;;;7.60;91.30;;;;;;4993390;28;20195;-79
2021/01/20 10:26:46;;;;;;;5.87;2.47;;;7.60;91.80;;;;;;4992738;28;20190;-78
2021/01/20 10:29:12;;;;;;;3.70;2.97;;;7.80;84.80;;;;;;4993126;28;20265;-77
2021/01/20 10:31:39;;;;;;;3.80;2.88;;;7.90;85.60;;;;;;4984426;28;20224;-77
2021/01/20 10:34:07;;;;;;;4.03;2.67;;;7.80;89.70;;;;;;5012655;28;20205;-77
2021/01/20 10:36:33;;;;;;;3.75;2.85;;;7.70;87.40;;;;;;5004779;28;20202;-77
2021/01/20 10:39:00;;;;;;;5.70;2.92;;;7.80;87.10;;;;;;4992984;28;20245;-77
2021/01/20 10:41:26;;;;;;;4.15;2.72;;;7.70;89.80;;;;;;4999252;28;20170;-77
2021/01/20 10:43:53;;;;;;;5.78;2.55;;;7.70;90.80;;;;;;5012113;28;20257;-78
2021/01/20 10:46:25;;;;;;;3.47;2.63;;;7.70;87.90;;;;;;4991215;28;20209;-76
2021/01/20 10:48:51;;;;;;;6.93;2.50;;;7.80;91.10;;;;;;5003712;28;20210;-77
2021/01/20 10:51:17;;;;;;;6.32;3.42;;;7.90;89.10;;;;;;5008921;28;20166;-77
2021/01/20 10:53:42;;;;;;;3.20;2.43;;;8.00;84.20;;;;;;4992556;28;20313;-77
2021/01/20 10:56:09;;;;;;;5.30;3.20;;;8.10;87.50;;;;;;4995444;28;20225;-78
2021/01/20 10:58:35;;;;;;;3.92;2.35;;;8.10;85.10;;;;;;5012131;28;20623;-77
2021/01/20 11:01:02;;;;;;;3.45;2.25;;;8.10;86.00;;;;;;5011175;28;20208;-77
2021/01/20 11:03:29;;;;;;;3.65;2.72;;;8.20;83.90;;;;;;4994522;28;21684;-77
2021/01/20 11:05:54;;;;;;;6.05;2.50;;;8.20;88.10;;;;;;5012215;28;20193;-77
2021/01/20 11:08:20;;;;;;;3.47;2.77;;;8.10;87.80;;;;;;4992035;28;20242;-78
2021/01/20 11:10:47;;;;;;;4.60;2.50;;;8.10;85.80;;;;;;4992571;28;20202;-77
2021/01/20 11:13:13;;;;;;;3.25;2.00;;;8.10;85.10;;;;;;4992044;28;20461;-77
2021/01/20 11:15:45;;;;;;;3.65;2.42;;;8.20;82.90;;;;;;4992862;28;20241;-78
2021/01/20 11:18:15;;;;;;;5.53;2.35;;;8.20;84.90;;;;;;4992163;28;20214;-77
2021/01/20 11:20:42;;;;;;;4.05;2.60;;;8.30;82.10;;;;;;4994824;28;20695;-78
2021/01/20 11:23:12;;;;;;;3.88;2.47;;;8.20;86.60;;;;;;5011663;28;20218;-77
2021/01/20 11:25:46;;;;;;;6.82;2.15;;;8.10;86.30;;;;;;4993509;28;20553;-77
2021/01/20 11:28:12;;;;;;;2.90;2.60;;;8.10;84.40;;;;;;4992413;28;20296;-77
2021/01/20 11:30:39;;;;;;;2.80;2.28;;;8.20;84.60;;;;;;4993907;28;20205;-78
2021/01/20 11:33:05;;;;;;;3.00;2.05;;;8.20;87.40;;;;;;5011221;28;20221;-78
2021/01/20 11:35:32;;;;;;;4.32;2.80;;;8.20;84.10;;;;;;5010787;28;20206;-78
2021/01/20 11:37:58;;;;;;;6.88;2.90;;;8.30;82.90;;;;;;4990290;28;20241;-78
2021/01/20 11:40:25;;;;;;;3.40;2.53;;;8.30;82.90;;;;;;4995892;28;20186;-77
2021/01/20 11:42:57;;;;;;;4.25;3.15;;;8.30;82.90;;;;;;5011050;28;20592;-78
2021/01/20 11:45:34;;;;;;;4.68;2.97;;;8.30;83.60;;;;;;5011310;28;20190;-78
2021/01/20 11:48:00;;;;;;;3.53;2.65;;;8.30;82.90;;;;;;4992618;28;20241;-78
2021/01/20 11:50:26;;;;;;;5.03;3.50;;;8.20;82.80;;;;;;5011001;28;20197;-78
2021/01/20 11:52:53;;;;;;;7.88;3.42;;;8.30;82.20;;;;;;5007931;28;20211;-78
2021/01/20 11:55:20;;;;;;;6.05;3.30;;;8.30;83.90;;;;;;4991869;28;20217;-77
2021/01/20 11:57:45;;;;;;;4.57;2.90;;;8.30;83.90;;;;;;4974899;28;20218;-77
2021/01/20 12:00:12;;;;;;;6.37;2.70;;;8.30;84.70;;;;;;5011697;28;20240;-77
2021/01/20 12:02:38;;;;;;;6.15;2.40;;;8.40;85.20;;;;;;4993829;28;20210;-77
2021/01/20 12:05:06;;;;;;;4.10;2.88;;;8.30;86.80;;;;;;4991952;28;20767;-78
2021/01/20 12:07:32;;;;;;;4.43;3.28;;;8.20;82.80;;;;;;4991821;28;20260;-77
2021/01/20 12:09:58;;;;;;;2.90;2.28;;;8.30;83.60;;;;;;4990384;28;20191;-77
2021/01/20 12:12:23;;;;;;;3.20;2.70;;;8.30;85.10;;;;;;4977053;28;20216;-78
2021/01/20 12:14:49;;;;;;;4.47;2.60;;;8.30;84.50;;;;;;5012256;28;20202;-79
2021/01/20 12:17:18;;;;;;;5.93;3.73;;;8.30;82.90;;;;;;4995449;28;20687;-79
2021/01/20 12:19:43;;;;;;;2.85;2.58;;;8.40;83.70;;;;;;4991229;28;20252;-79
2021/01/20 12:22:09;;;;;;;4.10;2.73;;;8.40;86.30;;;;;;4991656;28;20269;-77
2021/01/20 12:24:35;;;;;;;2.83;2.40;;;8.30;83.00;;;;;;4972182;28;20195;-78
2021/01/20 12:27:01;;;;;;;6.50;2.13;;;8.30;81.70;;;;;;4994341;28;20344;-78
2021/01/20 12:29:27;;;;;;;3.93;3.27;;;8.30;82.30;;;;;;4991743;28;20207;-78
2021/01/20 12:31:52;;;;;;;5.87;3.40;;;8.40;84.30;;;;;;4975307;28;20453;-78
2021/01/20 12:34:18;;;;;;;4.00;3.53;;;8.50;80.60;;;;;;4991575;28;20266;-78
2021/01/20 12:36:45;;;;;;;4.78;2.70;;;8.40;83.00;;;;;;4991468;28;20190;-78
2021/01/20 12:39:11;;;;;;;2.65;2.30;;;8.40;83.40;;;;;;4992308;28;20206;-77
2021/01/20 12:41:37;;;;;;;4.20;2.20;;;8.40;83.00;;;;;;5007255;28;20202;-77
2021/01/20 12:44:03;;;;;;;6.23;3.13;;;8.40;84.40;;;;;;4996791;28;20273;-78
2021/01/20 12:46:29;;;;;;;3.85;2.25;;;8.40;83.30;;;;;;4992372;28;20227;-78
2021/01/20 12:48:54;;;;;;;3.00;2.37;;;8.40;83.00;;;;;;5003291;28;20213;-78
2021/01/20 12:51:20;;;;;;;4.70;3.10;;;8.40;84.60;;;;;;5011463;28;20196;-77
2021/01/20 12:53:46;;;;;;;3.03;2.53;;;8.40;85.70;;;;;;5000085;28;20222;-77
2021/01/20 12:56:11;;;;;;;6.07;4.20;;;8.40;85.80;;;;;;5012391;28;20205;-78
2021/01/20 12:58:37;;;;;;;3.97;2.90;;;8.50;83.10;;;;;;5010423;28;20217;-78
2021/01/20 13:01:03;;;;;;;4.33;2.97;;;8.60;81.80;;;;;;4993105;28;20333;-77
2021/01/20 13:03:28;;;;;;;3.93;2.77;;;8.60;82.20;;;;;;4999351;28;20219;-77